createdAt,value
2022-11-27T00:01:00.978Z,102371.53
2022-11-27T00:03:28.347Z,102368.81
2022-11-27T00:05:57.734Z,102361.25
2022-11-27T00:08:25.493Z,102367.56
2022-11-27T00:10:52.856Z,102357.31
2022-11-27T00:13:19.895Z,102355.72
2022-11-27T00:15:47.278Z,102356.72
2022-11-27T00:18:14.384Z,102356.72
2022-11-27T00:20:41.436Z,102343.91
2022-11-27T00:23:08.477Z,102350.00
2022-11-27T00:25:35.625Z,102341.41
2022-11-27T00:28:02.683Z,102336.06
2022-11-27T00:30:29.753Z,102329.28
2022-11-27T00:32:59.434Z,102334.41
2022-11-27T00:35:26.874Z,102331.94
2022-11-27T00:37:53.885Z,102332.63
2022-11-27T00:40:20.936Z,102318.63
2022-11-27T00:42:48.007Z,102328.06
2022-11-27T00:45:15.074Z,102323.75
2022-11-27T00:47:42.175Z,102318.22
2022-11-27T00:50:09.710Z,102322.38
2022-11-27T00:52:36.714Z,102318.03
2022-11-27T00:55:03.860Z,102337.06
2022-11-27T00:57:30.940Z,102314.16
2022-11-27T00:59:58.070Z,102322.16
2022-11-27T01:02:25.444Z,102325.72
2022-11-27T01:04:52.560Z,102327.38
2022-11-27T01:07:19.631Z,102322.94
2022-11-27T01:09:46.610Z,102322.06
2022-11-27T01:12:13.656Z,102319.50
2022-11-27T01:14:40.924Z,102318.50
2022-11-27T01:17:08.109Z,102312.50
2022-11-27T01:19:35.175Z,102300.25
2022-11-27T01:22:02.209Z,102304.69
2022-11-27T01:24:29.254Z,102291.16
2022-11-27T01:26:56.459Z,102295.81
2022-11-27T01:29:23.541Z,102284.47
2022-11-27T01:31:50.594Z,102281.91
2022-11-27T01:34:18.864Z,102288.03
2022-11-27T01:36:46.194Z,102292.25
2022-11-27T01:39:19.605Z,102289.69
2022-11-27T01:41:48.083Z,102282.78
2022-11-27T01:44:23.804Z,102286.25
2022-11-27T01:46:52.822Z,102270.84
2022-11-27T01:49:38.261Z,102258.50
2022-11-27T01:52:15.879Z,102257.25
2022-11-27T01:54:47.821Z,102246.00
2022-11-27T01:57:25.341Z,102243.41
2022-11-27T01:59:54.524Z,102233.16
2022-11-27T02:02:21.651Z,102217.00
2022-11-27T02:04:48.891Z,102223.59
2022-11-27T02:07:16.143Z,102221.13
2022-11-27T02:09:43.432Z,102224.56
2022-11-27T02:12:34.521Z,102214.31
2022-11-27T02:15:14.088Z,102207.44
2022-11-27T02:17:55.445Z,102212.56
2022-11-27T02:20:25.455Z,102200.59
2022-11-27T02:23:23.231Z,102199.72
2022-11-27T02:26:21.401Z,102191.13
2022-11-27T02:29:07.824Z,102188.47
2022-11-27T02:31:54.454Z,102181.19
2022-11-27T02:34:43.101Z,102196.97
2022-11-27T02:37:30.627Z,102195.88
2022-11-27T02:40:07.136Z,102207.31
2022-11-27T02:42:40.798Z,102207.22
2022-11-27T02:45:12.601Z,102209.09
2022-11-27T02:47:43.757Z,102205.72
2022-11-27T02:50:16.698Z,102205.94
2022-11-27T02:52:45.812Z,102201.69
2022-11-27T02:55:17.596Z,102188.94
2022-11-27T02:57:46.369Z,102187.75
2022-11-27T03:00:14.225Z,102185.81
2022-11-27T03:02:46.424Z,102190.44
2022-11-27T03:05:19.619Z,102196.53
2022-11-27T03:08:06.389Z,102185.47
2022-11-27T03:10:46.187Z,102183.91
2022-11-27T03:13:13.414Z,102183.91
2022-11-27T03:15:51.575Z,102184.00
2022-11-27T03:18:22.626Z,102182.22
2022-11-27T03:20:54.115Z,102176.91
2022-11-27T03:23:21.212Z,102190.03
2022-11-27T03:25:48.278Z,102196.03
2022-11-27T03:28:15.840Z,102184.78
2022-11-27T03:30:43.018Z,102187.19
2022-11-27T03:33:10.428Z,102197.63
2022-11-27T03:35:37.497Z,102186.41
2022-11-27T03:38:04.787Z,102192.41
2022-11-27T03:40:45.845Z,102172.00
2022-11-27T03:43:29.749Z,102173.34
2022-11-27T03:46:20.115Z,102172.66
2022-11-27T03:49:08.673Z,102171.00
2022-11-27T03:51:49.447Z,102171.00
2022-11-27T03:54:43.068Z,102160.53
2022-11-27T03:57:26.227Z,102167.22
2022-11-27T03:59:56.639Z,102148.81
2022-11-27T04:02:39.380Z,102138.84
2022-11-27T04:05:07.040Z,102157.22
2022-11-27T04:07:34.139Z,102157.88
2022-11-27T04:10:01.211Z,102161.13
2022-11-27T04:12:28.271Z,102147.94
2022-11-27T04:14:55.347Z,102152.38
2022-11-27T04:17:23.116Z,102151.50
2022-11-27T04:19:50.235Z,102174.56
2022-11-27T04:22:17.303Z,102162.53
2022-11-27T04:24:44.376Z,102165.88
2022-11-27T04:27:11.374Z,102169.22
2022-11-27T04:29:38.416Z,102176.13
2022-11-27T04:32:05.599Z,102168.28
2022-11-27T04:34:32.884Z,102165.78
2022-11-27T04:37:00.302Z,102153.84
2022-11-27T04:39:27.545Z,102155.63
2022-11-27T04:41:54.534Z,102155.63
2022-11-27T04:44:22.793Z,102148.72
2022-11-27T04:46:50.246Z,102141.16
2022-11-27T04:49:17.400Z,102142.72
2022-11-27T04:51:44.556Z,102134.94
2022-11-27T04:54:12.116Z,102140.16
2022-11-27T04:56:39.088Z,102136.69
2022-11-27T04:59:06.077Z,102123.69
2022-11-27T05:01:33.204Z,102128.13
2022-11-27T05:04:00.325Z,102108.09
2022-11-27T05:06:27.371Z,102113.31
2022-11-27T05:08:59.935Z,102109.09
2022-11-27T05:11:27.050Z,102113.50
2022-11-27T05:14:14.150Z,102106.59
2022-11-27T05:16:42.223Z,102106.81
2022-11-27T05:19:10.703Z,102105.81
2022-11-27T05:21:38.219Z,102103.56
2022-11-27T05:24:05.846Z,102083.91
2022-11-27T05:26:33.724Z,102091.59
2022-11-27T05:29:01.238Z,102097.81
2022-11-27T05:31:28.534Z,102090.94
2022-11-27T05:33:56.071Z,102085.69
2022-11-27T05:36:23.154Z,102093.66
2022-11-27T05:38:50.265Z,102079.28
2022-11-27T05:41:17.276Z,102081.13
2022-11-27T05:43:44.363Z,102076.09
2022-11-27T05:46:14.481Z,102083.19
2022-11-27T05:48:41.823Z,102084.97
2022-11-27T05:51:08.961Z,102010.78
2022-11-27T05:53:35.988Z,102070.28
2022-11-27T05:56:12.063Z,102060.81
2022-11-27T05:58:39.832Z,102062.84
2022-11-27T06:01:07.584Z,102065.41
2022-11-27T06:03:35.031Z,102072.16
2022-11-27T06:06:19.910Z,102066.22
2022-11-27T06:08:47.618Z,102055.97
2022-11-27T06:11:21.040Z,102071.53
2022-11-27T06:13:49.553Z,102063.66
2022-11-27T06:16:22.419Z,102059.81
2022-11-27T06:18:53.829Z,102065.25
2022-11-27T06:21:22.232Z,102068.78
2022-11-27T06:23:49.758Z,102044.34
2022-11-27T06:26:20.052Z,102059.31
2022-11-27T06:28:47.925Z,102056.75
2022-11-27T06:31:18.669Z,102051.63
2022-11-27T06:33:47.541Z,102048.16
2022-11-27T06:36:15.032Z,102042.94
2022-11-27T06:38:42.969Z,102042.75
2022-11-27T06:41:15.997Z,102037.72
2022-11-27T06:43:43.395Z,102032.75
2022-11-27T06:46:15.311Z,102032.59
2022-11-27T06:48:43.529Z,102037.59
2022-11-27T06:51:12.917Z,102035.84
2022-11-27T06:53:40.557Z,102036.66
2022-11-27T06:56:13.493Z,102033.47
2022-11-27T06:58:41.873Z,102031.63
2022-11-27T07:01:12.194Z,102028.13
2022-11-27T07:03:39.976Z,102044.63
2022-11-27T07:06:09.012Z,102032.59
2022-11-27T07:08:36.623Z,102023.84
2022-11-27T07:11:12.477Z,102015.50
2022-11-27T07:13:39.595Z,102027.47
2022-11-27T07:16:09.631Z,102014.53
2022-11-27T07:18:39.398Z,102009.41
2022-11-27T07:21:06.486Z,102000.91
2022-11-27T07:23:33.640Z,101993.22
2022-11-27T07:26:06.358Z,101995.19
2022-11-27T07:28:33.486Z,101979.81
2022-11-27T07:31:00.637Z,101982.38
2022-11-27T07:33:27.690Z,101981.38
2022-11-27T07:36:05.875Z,101977.03
2022-11-27T07:38:33.660Z,101972.63
2022-11-27T07:41:02.057Z,101969.97
2022-11-27T07:43:30.113Z,101968.19
2022-11-27T07:45:57.534Z,101971.53
2022-11-27T07:48:24.993Z,101956.88
2022-11-27T07:50:52.071Z,101960.94
2022-11-27T07:53:19.188Z,101963.50
2022-11-27T07:55:46.248Z,101954.03
2022-11-27T07:58:13.281Z,101958.38
2022-11-27T08:00:40.707Z,101959.22
2022-11-27T08:03:07.816Z,101960.94
2022-11-27T08:05:35.644Z,101946.84
2022-11-27T08:08:04.624Z,101962.50
2022-11-27T08:10:35.710Z,101952.94
2022-11-27T08:13:05.523Z,101952.25
2022-11-27T08:15:32.866Z,101954.72
2022-11-27T08:17:59.954Z,101950.56
2022-11-27T08:20:27.025Z,101944.63
2022-11-27T08:22:58.138Z,101946.41
2022-11-27T08:25:28.143Z,101936.66
2022-11-27T08:27:55.148Z,101931.72
2022-11-27T08:30:23.791Z,101929.25
2022-11-27T08:32:50.959Z,101944.84
2022-11-27T08:35:18.061Z,101943.25
2022-11-27T08:37:45.311Z,101946.69
2022-11-27T08:40:12.370Z,101938.63
2022-11-27T08:42:39.441Z,101951.81
2022-11-27T08:45:06.818Z,101943.25
2022-11-27T08:47:33.919Z,101921.97
2022-11-27T08:50:00.928Z,101942.44
2022-11-27T08:52:27.957Z,101944.19
2022-11-27T08:54:57.762Z,101938.00
2022-11-27T08:57:28.180Z,101947.69
2022-11-27T08:59:55.239Z,101941.56
2022-11-27T09:02:22.220Z,101939.00
2022-11-27T09:04:49.302Z,101947.69
2022-11-27T09:07:16.705Z,101952.81
2022-11-27T09:09:44.009Z,101949.44
2022-11-27T09:12:11.032Z,101952.88
2022-11-27T09:14:38.423Z,101941.75
2022-11-27T09:17:08.400Z,101945.28
2022-11-27T09:19:35.459Z,101939.28
2022-11-27T09:22:02.685Z,101935.13
2022-11-27T09:24:29.762Z,101935.22
2022-11-27T09:26:56.813Z,101933.72
2022-11-27T09:29:23.844Z,101931.06
2022-11-27T09:31:51.332Z,101931.22
2022-11-27T09:34:18.607Z,101934.16
2022-11-27T09:36:45.700Z,101931.78
2022-11-27T09:39:13.761Z,101927.69
2022-11-27T09:41:51.548Z,101920.09
2022-11-27T09:44:24.701Z,101926.13
2022-11-27T09:46:54.205Z,101925.34
2022-11-27T09:49:29.233Z,101916.00
2022-11-27T09:52:13.544Z,101912.84
2022-11-27T09:54:54.948Z,101914.78
2022-11-27T09:57:32.954Z,101905.41
2022-11-27T10:00:06.380Z,101897.09
2022-11-27T10:02:35.390Z,101892.94
2022-11-27T10:05:15.196Z,101888.94
2022-11-27T10:08:06.375Z,101883.66
2022-11-27T10:10:50.227Z,101891.75
2022-11-27T10:13:44.513Z,101892.03
2022-11-27T10:16:44.522Z,101884.50
2022-11-27T10:19:35.863Z,101885.47
2022-11-27T10:22:09.565Z,101872.63
2022-11-27T10:24:44.638Z,101867.59
2022-11-27T10:27:26.706Z,101868.66
2022-11-27T10:29:56.082Z,101864.38
2022-11-27T10:35:19.782Z,101851.56
2022-11-27T10:38:09.461Z,101856.34
2022-11-27T10:40:48.093Z,101848.38
2022-11-27T10:43:23.628Z,101859.03
2022-11-27T10:45:59.166Z,101845.09
2022-11-27T10:48:28.478Z,101851.34
2022-11-27T10:50:56.186Z,101847.97
2022-11-27T10:53:32.269Z,101842.19
2022-11-27T10:56:15.170Z,101836.38
2022-11-27T10:58:54.253Z,101822.81
2022-11-27T11:01:23.507Z,101825.28
2022-11-27T11:03:51.437Z,101820.13
2022-11-27T11:06:25.359Z,101811.38
2022-11-27T11:09:12.871Z,101813.41
2022-11-27T11:11:40.782Z,101807.22
2022-11-27T11:14:25.219Z,101805.16
2022-11-27T11:16:55.471Z,101801.72
2022-11-27T11:19:30.604Z,101795.19
2022-11-27T11:22:02.931Z,101792.63
2022-11-27T11:24:33.004Z,101788.38
2022-11-27T11:27:05.088Z,101786.03
2022-11-27T11:29:38.406Z,101780.34
2022-11-27T11:32:12.983Z,101772.88
2022-11-27T11:34:56.200Z,101767.00
2022-11-27T11:37:34.770Z,101770.97
2022-11-27T11:40:20.966Z,101766.00
2022-11-27T11:43:09.943Z,101759.31
2022-11-27T11:45:45.531Z,101756.25
2022-11-27T11:48:26.891Z,101756.31
2022-11-27T11:51:16.184Z,101752.88
2022-11-27T11:53:45.630Z,101743.63
2022-11-27T11:56:33.639Z,101732.25
2022-11-27T11:59:03.705Z,101739.22
2022-11-27T12:02:04.068Z,101747.00
2022-11-27T12:05:04.586Z,101724.53
2022-11-27T12:07:52.607Z,101729.75
2022-11-27T12:10:28.016Z,101729.81
2022-11-27T12:13:42.567Z,101713.59
2022-11-27T12:16:31.203Z,101707.66
2022-11-27T12:19:10.127Z,101712.06
2022-11-27T12:21:46.281Z,101709.47
2022-11-27T12:24:44.013Z,101703.59
2022-11-27T12:27:36.063Z,101691.94
2022-11-27T12:30:47.291Z,101665.22
2022-11-27T12:33:30.315Z,101666.28
2022-11-27T12:36:06.728Z,101651.47
2022-11-27T12:38:39.466Z,101663.66
2022-11-27T12:41:44.374Z,101668.75
2022-11-27T12:44:21.219Z,101672.97
2022-11-27T12:47:00.634Z,101659.25
2022-11-27T12:49:57.240Z,101657.44
2022-11-27T12:52:38.373Z,101643.03
2022-11-27T12:55:25.812Z,101647.28
2022-11-27T12:58:06.945Z,101633.47
2022-11-27T13:00:40.014Z,101637.88
2022-11-27T13:03:22.947Z,101635.38
2022-11-27T13:05:55.989Z,101633.78
2022-11-27T13:09:16.260Z,101632.88
2022-11-27T13:11:44.061Z,101639.72
2022-11-27T13:14:18.641Z,101630.31
2022-11-27T13:16:58.481Z,101633.78
2022-11-27T13:19:42.232Z,101624.06
2022-11-27T13:22:17.210Z,101629.28
2022-11-27T13:24:44.361Z,101612.06
2022-11-27T13:27:23.546Z,101609.44
2022-11-27T13:29:56.070Z,101614.53
2022-11-27T13:32:34.244Z,101611.94
2022-11-27T13:35:06.856Z,101604.59
2022-11-27T13:37:39.968Z,101616.72
2022-11-27T13:40:32.097Z,101612.47
2022-11-27T13:43:05.853Z,101600.03
2022-11-27T13:45:36.225Z,101604.59
2022-11-27T13:48:22.581Z,101595.84
2022-11-27T13:50:54.343Z,101575.97
2022-11-27T13:53:37.520Z,101583.00
2022-11-27T13:56:05.977Z,101576.03
2022-11-27T13:58:39.616Z,101576.75
2022-11-27T14:01:22.023Z,101559.28
2022-11-27T14:03:49.876Z,101566.69
2022-11-27T14:06:26.950Z,101561.31
2022-11-27T14:09:06.100Z,101549.84
2022-11-27T14:11:48.091Z,101554.25
2022-11-27T14:14:21.932Z,101547.28
2022-11-27T14:16:57.707Z,101541.25
2022-11-27T14:19:33.516Z,101546.41
2022-11-27T14:22:02.036Z,101529.88
2022-11-27T14:24:43.884Z,101535.16
2022-11-27T14:27:17.205Z,101536.94
2022-11-27T14:29:44.532Z,101534.13
2022-11-27T14:32:14.549Z,101529.06
2022-11-27T14:34:42.865Z,101515.06
2022-11-27T14:37:24.101Z,101526.34
2022-11-27T14:39:51.203Z,101525.47
2022-11-27T14:42:29.308Z,101508.06
2022-11-27T14:45:08.350Z,101507.94
2022-11-27T14:47:35.968Z,101505.66
2022-11-27T14:50:03.998Z,101496.84
2022-11-27T14:52:31.687Z,101490.16
2022-11-27T14:55:00.929Z,101481.34
2022-11-27T14:57:29.989Z,101477.00
2022-11-27T15:00:25.217Z,101485.78
2022-11-27T15:02:53.182Z,101481.44
2022-11-27T15:05:26.660Z,101481.50
2022-11-27T15:07:58.661Z,101481.44
2022-11-27T15:10:37.994Z,101481.56
2022-11-27T15:13:07.384Z,101478.13
2022-11-27T15:15:44.364Z,101478.13
2022-11-27T15:18:20.712Z,101480.63
2022-11-27T15:20:48.086Z,101471.00
2022-11-27T15:23:19.826Z,101470.44
2022-11-27T15:25:51.672Z,101472.19
2022-11-27T15:28:28.488Z,101463.53
2022-11-27T15:30:57.045Z,101463.69
2022-11-27T15:33:32.392Z,101457.53
2022-11-27T15:36:21.615Z,101458.69
2022-11-27T15:38:51.069Z,101445.84
2022-11-27T15:41:27.131Z,101442.47
2022-11-27T15:43:55.910Z,101425.97
2022-11-27T15:46:26.683Z,101426.88
2022-11-27T15:48:53.743Z,101430.41
2022-11-27T15:51:20.853Z,101418.38
2022-11-27T15:53:48.650Z,101422.06
2022-11-27T15:56:16.162Z,101416.19
2022-11-27T15:58:43.684Z,101425.72
2022-11-27T16:01:11.343Z,101413.75
2022-11-27T16:03:39.989Z,101414.53
2022-11-27T16:06:08.644Z,101424.16
2022-11-27T16:08:36.506Z,101424.22
2022-11-27T16:11:08.068Z,101420.13
2022-11-27T16:13:35.123Z,101425.34
2022-11-27T16:16:06.903Z,101416.75
2022-11-27T16:18:35.307Z,101413.44
2022-11-27T16:21:04.597Z,101416.97
2022-11-27T16:23:32.350Z,101404.09
2022-11-27T16:26:00.294Z,101392.06
2022-11-27T16:28:28.685Z,101393.94
2022-11-27T16:30:57.708Z,101378.13
2022-11-27T16:33:32.361Z,101380.19
2022-11-27T16:36:10.793Z,101382.91
2022-11-27T16:38:38.470Z,101376.94
2022-11-27T16:41:09.013Z,101371.81
2022-11-27T16:43:38.970Z,101365.88
2022-11-27T16:46:12.041Z,101369.41
2022-11-27T16:48:40.986Z,101355.53
2022-11-27T16:51:12.734Z,101359.13
2022-11-27T16:53:42.241Z,101357.34
2022-11-27T16:56:12.071Z,101353.03
2022-11-27T16:58:42.285Z,101348.78
2022-11-27T17:01:15.253Z,101347.00
2022-11-27T17:03:43.008Z,101339.81
2022-11-27T17:06:12.101Z,101343.44
2022-11-27T17:08:39.587Z,101343.44
2022-11-27T17:11:12.086Z,101332.84
2022-11-27T17:13:39.220Z,101333.16
2022-11-27T17:16:08.672Z,101332.34
2022-11-27T17:18:41.841Z,101333.16
2022-11-27T17:21:12.491Z,101330.44
2022-11-27T17:23:43.022Z,101330.44
2022-11-27T17:26:12.157Z,101317.59
2022-11-27T17:28:39.264Z,101324.38
2022-11-27T17:31:18.034Z,101326.16
2022-11-27T17:33:46.413Z,101321.81
2022-11-27T17:36:14.067Z,101320.06
2022-11-27T17:38:41.795Z,101314.78
2022-11-27T17:41:11.801Z,101314.88
2022-11-27T17:43:39.741Z,101309.72
2022-11-27T17:46:12.108Z,101301.06
2022-11-27T17:48:39.740Z,101303.56
2022-11-27T17:51:07.307Z,101300.09
2022-11-27T17:53:34.671Z,101298.50
2022-11-27T17:56:06.721Z,101284.47
2022-11-27T17:58:34.121Z,101284.63
2022-11-27T18:01:02.131Z,101281.09
2022-11-27T18:03:29.702Z,101276.88
2022-11-27T18:05:57.193Z,101274.28
2022-11-27T18:08:24.272Z,101267.25
2022-11-27T18:10:51.319Z,101266.44
2022-11-27T18:13:18.327Z,101260.50
2022-11-27T18:15:45.958Z,101257.84
2022-11-27T18:18:13.045Z,101257.91
2022-11-27T18:20:40.181Z,101256.22
2022-11-27T18:23:07.264Z,101248.41
2022-11-27T18:25:34.690Z,101255.34
2022-11-27T18:28:03.125Z,101244.88
2022-11-27T18:30:30.252Z,101245.63
2022-11-27T18:32:57.341Z,101233.38
2022-11-27T18:35:24.983Z,101238.56
2022-11-27T18:37:52.053Z,101233.38
2022-11-27T18:40:19.305Z,101237.56
2022-11-27T18:42:46.428Z,101226.38
2022-11-27T18:45:31.740Z,101225.19
2022-11-27T18:48:00.166Z,101226.22
2022-11-27T18:50:29.861Z,101223.59
2022-11-27T18:52:57.134Z,101228.56
2022-11-27T18:55:24.483Z,101215.59
2022-11-27T18:57:52.983Z,101216.44
2022-11-27T19:00:20.432Z,101207.81
2022-11-27T19:02:47.555Z,101205.06
2022-11-27T19:05:14.710Z,101202.47
2022-11-27T19:07:42.179Z,101197.22
2022-11-27T19:10:09.642Z,101200.59
2022-11-27T19:12:36.769Z,101191.06
2022-11-27T19:15:04.566Z,101186.59
2022-11-27T19:17:32.541Z,101177.88
2022-11-27T19:19:59.736Z,101186.75
2022-11-27T19:22:26.818Z,101184.94
2022-11-27T19:24:53.864Z,101188.31
2022-11-27T19:27:20.955Z,101190.13
2022-11-27T19:29:48.913Z,101177.13
2022-11-27T19:32:15.886Z,101172.75
2022-11-27T19:34:43.221Z,101171.94
2022-11-27T19:37:33.580Z,101171.09
2022-11-27T19:40:01.662Z,101169.38
2022-11-27T19:42:28.973Z,101154.38
2022-11-27T19:44:56.277Z,101166.66
2022-11-27T19:47:23.683Z,101158.03
2022-11-27T19:49:50.829Z,101146.81
2022-11-27T19:52:18.065Z,101142.22
2022-11-27T19:54:45.376Z,101138.16
2022-11-27T19:57:12.542Z,101136.28
2022-11-27T19:59:40.357Z,101143.28
2022-11-27T20:02:12.962Z,101128.59
2022-11-27T20:04:40.774Z,101133.97
2022-11-27T20:07:08.204Z,101115.75
2022-11-27T20:09:35.542Z,101116.69
2022-11-27T20:12:02.819Z,101118.38
2022-11-27T20:14:30.087Z,101110.72
2022-11-27T20:16:57.220Z,101095.13
2022-11-27T20:19:24.351Z,101099.59
2022-11-27T20:21:51.951Z,101097.91
2022-11-27T20:24:19.209Z,101096.88
2022-11-27T20:26:46.305Z,101085.00
2022-11-27T20:29:13.941Z,101084.94
2022-11-27T20:31:45.284Z,101081.44
2022-11-27T20:34:21.088Z,101079.66
2022-11-27T20:36:48.868Z,101081.44
2022-11-27T20:39:20.915Z,101070.22
2022-11-27T20:41:49.845Z,101069.28
2022-11-27T20:44:17.506Z,101066.59
2022-11-27T20:46:44.780Z,101065.03
2022-11-27T20:49:12.319Z,101059.91
2022-11-27T20:51:39.493Z,101054.75
2022-11-27T20:54:07.052Z,101046.00
2022-11-27T20:56:34.668Z,101048.75
2022-11-27T20:59:01.726Z,101049.63
2022-11-27T21:01:32.038Z,101047.94
2022-11-27T21:04:00.973Z,101037.75
2022-11-27T21:06:30.375Z,101036.84
2022-11-27T21:09:00.532Z,101038.50
2022-11-27T21:11:29.551Z,101018.50
2022-11-27T21:14:04.982Z,101029.09
2022-11-27T21:16:34.327Z,101028.28
2022-11-27T21:19:06.924Z,101027.41
2022-11-27T21:21:34.845Z,101025.78
2022-11-27T21:24:02.008Z,101019.63
2022-11-27T21:26:29.490Z,101020.59
2022-11-27T21:28:59.390Z,101009.94
2022-11-27T21:31:35.877Z,101021.47
2022-11-27T21:34:11.579Z,101015.31
2022-11-27T21:36:39.030Z,101016.31
2022-11-27T21:39:08.695Z,101012.91
2022-11-27T21:41:35.957Z,101005.13
2022-11-27T21:44:03.769Z,101010.28
2022-11-27T21:46:31.272Z,101000.94
2022-11-27T21:49:00.438Z,100993.78
2022-11-27T21:51:28.963Z,101004.31
2022-11-27T21:53:57.586Z,100999.31
2022-11-27T21:56:27.207Z,100983.91
2022-11-27T21:58:54.636Z,100996.75
2022-11-27T22:01:23.939Z,100987.34
2022-11-27T22:03:54.079Z,100986.47
2022-11-27T22:06:22.516Z,100988.25
2022-11-27T22:08:51.086Z,100983.91
2022-11-27T22:11:23.412Z,100990.81
2022-11-27T22:13:50.525Z,100985.72
2022-11-27T22:16:21.208Z,100968.50
2022-11-27T22:18:49.008Z,100966.81
2022-11-27T22:21:17.275Z,100966.81
2022-11-27T22:23:44.860Z,100959.25
2022-11-27T22:26:14.127Z,100947.97
2022-11-27T22:28:42.258Z,100950.69
2022-11-27T22:31:11.614Z,100930.81
2022-11-27T22:33:39.388Z,100932.72
2022-11-27T22:36:30.594Z,100936.91
2022-11-27T22:39:00.801Z,100936.09
2022-11-27T22:41:29.963Z,100930.16
2022-11-27T22:43:58.786Z,100913.88
2022-11-27T22:46:33.828Z,100920.81
2022-11-27T22:49:03.467Z,100907.16
2022-11-27T22:51:32.699Z,100901.97
2022-11-27T22:54:01.347Z,100910.53
2022-11-27T22:56:28.483Z,100901.94
2022-11-27T22:59:17.525Z,100892.47
2022-11-27T23:01:42.677Z,100885.59
2022-11-27T23:04:09.759Z,100901.22
2022-11-27T23:06:37.088Z,100895.91
2022-11-27T23:09:04.431Z,100912.44
2022-11-27T23:11:31.512Z,100899.56
2022-11-27T23:13:59.597Z,100901.38
2022-11-27T23:16:26.773Z,100892.84
2022-11-27T23:18:53.881Z,100886.88
2022-11-27T23:21:23.508Z,100886.00
2022-11-27T23:23:51.749Z,100880.13
2022-11-27T23:26:21.947Z,100874.22
2022-11-27T23:28:51.028Z,100872.47
2022-11-27T23:31:36.463Z,100889.63
2022-11-27T23:34:07.425Z,100875.19
2022-11-27T23:36:35.421Z,100870.84
2022-11-27T23:39:05.385Z,100879.44
2022-11-27T23:41:32.505Z,100871.66
2022-11-27T23:43:59.864Z,100860.47
2022-11-27T23:46:28.866Z,100861.41
2022-11-27T23:48:57.953Z,100856.22
2022-11-27T23:51:30.599Z,100858.84
2022-11-27T23:53:58.115Z,100864.03
2022-11-27T23:56:28.126Z,100856.22
2022-11-27T23:58:55.921Z,100840.63
